sensor_id;sensor_type;location;lat;lon;timestamp;temperature;humidity
66740;DHT22;53653;52.188;8.602;2022-07-04T00:00:03;17.39;72.68
66740;DHT22;53653;52.188;8.602;2022-07-04T00:02:28;17.35;72.63
66740;DHT22;53653;52.188;8.602;2022-07-04T00:04:54;17.39;72.35
66740;DHT22;53653;52.188;8.602;2022-07-04T00:07:19;17.44;72.41
66740;DHT22;53653;52.188;8.602;2022-07-04T00:09:45;17.41;72.22
66740;DHT22;53653;52.188;8.602;2022-07-04T00:12:10;17.42;72.26
66740;DHT22;53653;52.188;8.602;2022-07-04T00:14:36;17.42;72.15
66740;DHT22;53653;52.188;8.602;2022-07-04T00:17:02;17.44;71.81
66740;DHT22;53653;52.188;8.602;2022-07-04T00:19:27;17.41;72.06
66740;DHT22;53653;52.188;8.602;2022-07-04T00:21:53;17.32;72.51
66740;DHT22;53653;52.188;8.602;2022-07-04T00:24:18;17.26;72.52
66740;DHT22;53653;52.188;8.602;2022-07-04T00:26:44;17.27;72.39
66740;DHT22;53653;52.188;8.602;2022-07-04T00:29:09;17.24;72.18
66740;DHT22;53653;52.188;8.602;2022-07-04T00:31:35;17.24;71.97
66740;DHT22;53653;52.188;8.602;2022-07-04T00:34:00;17.17;72.05
66740;DHT22;53653;52.188;8.602;2022-07-04T00:36:26;17.06;72.75
66740;DHT22;53653;52.188;8.602;2022-07-04T00:38:51;16.99;73.33
66740;DHT22;53653;52.188;8.602;2022-07-04T00:41:17;16.97;73.26
66740;DHT22;53653;52.188;8.602;2022-07-04T00:43:42;16.97;73.43
66740;DHT22;53653;52.188;8.602;2022-07-04T00:46:08;16.97;72.79
66740;DHT22;53653;52.188;8.602;2022-07-04T00:48:33;16.93;72.79
66740;DHT22;53653;52.188;8.602;2022-07-04T00:50:59;16.93;72.59
66740;DHT22;53653;52.188;8.602;2022-07-04T00:53:24;16.87;73.11
66740;DHT22;53653;52.188;8.602;2022-07-04T00:55:52;16.81;73.24
66740;DHT22;53653;52.188;8.602;2022-07-04T00:58:22;16.75;73.47
66740;DHT22;53653;52.188;8.602;2022-07-04T01:00:48;16.68;73.83
66740;DHT22;53653;52.188;8.602;2022-07-04T01:03:14;16.62;74.35
66740;DHT22;53653;52.188;8.602;2022-07-04T01:05:42;16.60;73.95
66740;DHT22;53653;52.188;8.602;2022-07-04T01:08:07;16.55;74.03
66740;DHT22;53653;52.188;8.602;2022-07-04T01:10:33;16.44;74.39
66740;DHT22;53653;52.188;8.602;2022-07-04T01:12:58;16.38;74.83
66740;DHT22;53653;52.188;8.602;2022-07-04T01:15:24;16.32;74.83
66740;DHT22;53653;52.188;8.602;2022-07-04T01:17:49;16.26;75.18
66740;DHT22;53653;52.188;8.602;2022-07-04T01:20:15;16.18;75.45
66740;DHT22;53653;52.188;8.602;2022-07-04T01:22:41;16.12;75.81
66740;DHT22;53653;52.188;8.602;2022-07-04T01:25:08;16.07;75.94
66740;DHT22;53653;52.188;8.602;2022-07-04T01:27:34;16.07;76.14
66740;DHT22;53653;52.188;8.602;2022-07-04T01:29:59;16.02;76.32
66740;DHT22;53653;52.188;8.602;2022-07-04T01:32:25;16.01;76.24
66740;DHT22;53653;52.188;8.602;2022-07-04T01:34:50;15.98;76.12
66740;DHT22;53653;52.188;8.602;2022-07-04T01:37:16;15.90;76.57
66740;DHT22;53653;52.188;8.602;2022-07-04T01:39:41;15.83;76.77
66740;DHT22;53653;52.188;8.602;2022-07-04T01:42:07;15.76;77.22
66740;DHT22;53653;52.188;8.602;2022-07-04T01:44:33;15.76;77.05
66740;DHT22;53653;52.188;8.602;2022-07-04T01:46:58;15.74;77.27
66740;DHT22;53653;52.188;8.602;2022-07-04T01:49:24;15.70;77.15
66740;DHT22;53653;52.188;8.602;2022-07-04T01:51:50;15.67;77.60
66740;DHT22;53653;52.188;8.602;2022-07-04T01:54:16;15.70;77.62
66740;DHT22;53653;52.188;8.602;2022-07-04T01:56:42;15.70;77.04
66740;DHT22;53653;52.188;8.602;2022-07-04T01:59:08;15.71;76.93
66740;DHT22;53653;52.188;8.602;2022-07-04T02:01:34;15.63;77.55
66740;DHT22;53653;52.188;8.602;2022-07-04T02:04:03;15.59;77.52
66740;DHT22;53653;52.188;8.602;2022-07-04T02:06:29;15.53;77.63
66740;DHT22;53653;52.188;8.602;2022-07-04T02:08:55;15.50;77.69
66740;DHT22;53653;52.188;8.602;2022-07-04T02:11:39;15.43;78.29
66740;DHT22;53653;52.188;8.602;2022-07-04T02:14:23;15.43;77.99
66740;DHT22;53653;52.188;8.602;2022-07-04T02:16:49;15.39;78.03
66740;DHT22;53653;52.188;8.602;2022-07-04T02:19:14;15.38;78.44
66740;DHT22;53653;52.188;8.602;2022-07-04T02:21:40;15.36;78.18
66740;DHT22;53653;52.188;8.602;2022-07-04T02:24:06;15.40;77.96
66740;DHT22;53653;52.188;8.602;2022-07-04T02:26:31;15.35;78.36
66740;DHT22;53653;52.188;8.602;2022-07-04T02:28:57;15.29;78.59
66740;DHT22;53653;52.188;8.602;2022-07-04T02:31:22;15.23;78.45
66740;DHT22;53653;52.188;8.602;2022-07-04T02:33:48;15.28;78.44
66740;DHT22;53653;52.188;8.602;2022-07-04T02:36:14;15.26;78.47
66740;DHT22;53653;52.188;8.602;2022-07-04T02:38:39;15.19;78.92
66740;DHT22;53653;52.188;8.602;2022-07-04T02:41:05;15.08;79.67
66740;DHT22;53653;52.188;8.602;2022-07-04T02:43:30;14.87;80.49
66740;DHT22;53653;52.188;8.602;2022-07-04T02:45:56;14.85;80.47
66740;DHT22;53653;52.188;8.602;2022-07-04T02:48:21;14.88;79.97
66740;DHT22;53653;52.188;8.602;2022-07-04T02:50:47;14.96;79.63
66740;DHT22;53653;52.188;8.602;2022-07-04T02:53:12;14.99;79.41
66740;DHT22;53653;52.188;8.602;2022-07-04T02:55:38;14.99;79.89
66740;DHT22;53653;52.188;8.602;2022-07-04T02:58:03;14.89;80.25
66740;DHT22;53653;52.188;8.602;2022-07-04T03:00:29;14.83;80.31
66740;DHT22;53653;52.188;8.602;2022-07-04T03:02:54;14.81;80.03
66740;DHT22;53653;52.188;8.602;2022-07-04T03:05:20;14.89;79.92
66740;DHT22;53653;52.188;8.602;2022-07-04T03:07:46;14.88;79.92
66740;DHT22;53653;52.188;8.602;2022-07-04T03:10:11;14.92;79.76
66740;DHT22;53653;52.188;8.602;2022-07-04T03:12:37;14.96;79.35
66740;DHT22;53653;52.188;8.602;2022-07-04T03:15:03;14.96;79.25
66740;DHT22;53653;52.188;8.602;2022-07-04T03:17:29;14.98;79.48
66740;DHT22;53653;52.188;8.602;2022-07-04T03:19:56;14.99;79.47
66740;DHT22;53653;52.188;8.602;2022-07-04T03:22:22;14.99;79.47
66740;DHT22;53653;52.188;8.602;2022-07-04T03:24:47;14.99;79.56
66740;DHT22;53653;52.188;8.602;2022-07-04T03:27:13;15.01;79.42
66740;DHT22;53653;52.188;8.602;2022-07-04T03:29:39;15.04;79.27
66740;DHT22;53653;52.188;8.602;2022-07-04T03:32:05;15.06;79.12
66740;DHT22;53653;52.188;8.602;2022-07-04T03:34:31;14.98;79.82
66740;DHT22;53653;52.188;8.602;2022-07-04T03:36:56;14.98;79.68
66740;DHT22;53653;52.188;8.602;2022-07-04T03:39:22;14.85;80.12
66740;DHT22;53653;52.188;8.602;2022-07-04T03:41:48;14.92;79.93
66740;DHT22;53653;52.188;8.602;2022-07-04T03:44:14;14.92;80.29
66740;DHT22;53653;52.188;8.602;2022-07-04T03:46:39;14.88;80.49
66740;DHT22;53653;52.188;8.602;2022-07-04T03:49:05;14.91;80.01
66740;DHT22;53653;52.188;8.602;2022-07-04T03:51:31;14.98;79.86
66740;DHT22;53653;52.188;8.602;2022-07-04T03:53:57;15.06;79.74
66740;DHT22;53653;52.188;8.602;2022-07-04T03:56:22;15.08;79.43
66740;DHT22;53653;52.188;8.602;2022-07-04T03:58:48;15.12;79.50
66740;DHT22;53653;52.188;8.602;2022-07-04T04:01:18;15.11;79.75
66740;DHT22;53653;52.188;8.602;2022-07-04T04:03:44;15.01;80.03
66740;DHT22;53653;52.188;8.602;2022-07-04T04:06:29;15.01;79.99
66740;DHT22;53653;52.188;8.602;2022-07-04T04:08:54;15.29;79.49
66740;DHT22;53653;52.188;8.602;2022-07-04T04:11:20;16.07;76.58
66740;DHT22;53653;52.188;8.602;2022-07-04T04:13:46;16.75;74.09
66740;DHT22;53653;52.188;8.602;2022-07-04T04:16:11;17.18;72.27
66740;DHT22;53653;52.188;8.602;2022-07-04T04:18:37;17.64;70.86
66740;DHT22;53653;52.188;8.602;2022-07-04T04:21:03;17.86;70.22
66740;DHT22;53653;52.188;8.602;2022-07-04T04:23:28;18.02;69.54
66740;DHT22;53653;52.188;8.602;2022-07-04T04:25:54;17.38;70.95
66740;DHT22;53653;52.188;8.602;2022-07-04T04:28:19;17.24;72.11
66740;DHT22;53653;52.188;8.602;2022-07-04T04:30:45;17.37;72.06
66740;DHT22;53653;52.188;8.602;2022-07-04T04:33:10;17.49;71.75
66740;DHT22;53653;52.188;8.602;2022-07-04T04:35:36;17.58;71.23
66740;DHT22;53653;52.188;8.602;2022-07-04T04:38:01;17.58;71.59
66740;DHT22;53653;52.188;8.602;2022-07-04T04:40:26;17.41;72.25
66740;DHT22;53653;52.188;8.602;2022-07-04T04:42:52;17.20;72.68
66740;DHT22;53653;52.188;8.602;2022-07-04T04:45:17;17.14;74.04
66740;DHT22;53653;52.188;8.602;2022-07-04T04:47:43;17.21;73.77
66740;DHT22;53653;52.188;8.602;2022-07-04T04:50:09;17.26;73.22
66740;DHT22;53653;52.188;8.602;2022-07-04T04:52:37;17.18;73.65
66740;DHT22;53653;52.188;8.602;2022-07-04T04:55:03;17.10;74.04
66740;DHT22;53653;52.188;8.602;2022-07-04T04:57:29;16.77;75.17
66740;DHT22;53653;52.188;8.602;2022-07-04T04:59:54;16.76;75.87
66740;DHT22;53653;52.188;8.602;2022-07-04T05:02:23;16.93;75.51
66740;DHT22;53653;52.188;8.602;2022-07-04T05:04:49;17.00;75.03
66740;DHT22;53653;52.188;8.602;2022-07-04T05:07:14;17.14;74.74
66740;DHT22;53653;52.188;8.602;2022-07-04T05:09:40;17.23;74.36
66740;DHT22;53653;52.188;8.602;2022-07-04T05:12:05;17.32;74.09
66740;DHT22;53653;52.188;8.602;2022-07-04T05:14:31;17.45;73.95
66740;DHT22;53653;52.188;8.602;2022-07-04T05:16:57;17.56;73.98
66740;DHT22;53653;52.188;8.602;2022-07-04T05:19:22;17.56;73.47
66740;DHT22;53653;52.188;8.602;2022-07-04T05:21:47;17.74;73.11
66740;DHT22;53653;52.188;8.602;2022-07-04T05:24:13;17.83;73.29
66740;DHT22;53653;52.188;8.602;2022-07-04T05:26:38;17.97;72.83
66740;DHT22;53653;52.188;8.602;2022-07-04T05:29:04;18.13;72.61
66740;DHT22;53653;52.188;8.602;2022-07-04T05:31:29;18.27;71.93
66740;DHT22;53653;52.188;8.602;2022-07-04T05:33:55;18.40;71.79
66740;DHT22;53653;52.188;8.602;2022-07-04T05:36:24;18.44;71.74
66740;DHT22;53653;52.188;8.602;2022-07-04T05:38:49;18.50;71.41
66740;DHT22;53653;52.188;8.602;2022-07-04T05:41:15;18.72;70.82
66740;DHT22;53653;52.188;8.602;2022-07-04T05:43:41;18.87;69.91
66740;DHT22;53653;52.188;8.602;2022-07-04T05:46:07;18.92;69.45
66740;DHT22;53653;52.188;8.602;2022-07-04T05:48:32;18.89;69.62
66740;DHT22;53653;52.188;8.602;2022-07-04T05:50:58;18.92;69.66
66740;DHT22;53653;52.188;8.602;2022-07-04T05:53:24;18.88;69.54
66740;DHT22;53653;52.188;8.602;2022-07-04T05:55:49;19.03;69.54
66740;DHT22;53653;52.188;8.602;2022-07-04T05:58:14;18.96;69.42
66740;DHT22;53653;52.188;8.602;2022-07-04T06:00:41;19.10;69.57
66740;DHT22;53653;52.188;8.602;2022-07-04T06:03:07;19.24;68.85
66740;DHT22;53653;52.188;8.602;2022-07-04T06:05:32;19.34;68.05
66740;DHT22;53653;52.188;8.602;2022-07-04T06:07:58;19.37;68.07
66740;DHT22;53653;52.188;8.602;2022-07-04T06:10:23;19.43;67.35
66740;DHT22;53653;52.188;8.602;2022-07-04T06:12:51;19.47;66.89
66740;DHT22;53653;52.188;8.602;2022-07-04T06:15:17;19.64;67.02
66740;DHT22;53653;52.188;8.602;2022-07-04T06:17:42;19.78;66.80
66740;DHT22;53653;52.188;8.602;2022-07-04T06:20:08;19.97;66.53
66740;DHT22;53653;52.188;8.602;2022-07-04T06:22:47;20.24;66.21
66740;DHT22;53653;52.188;8.602;2022-07-04T06:25:18;20.32;65.85
66740;DHT22;53653;52.188;8.602;2022-07-04T06:27:45;20.25;65.75
66740;DHT22;53653;52.188;8.602;2022-07-04T06:30:12;20.57;65.10
66740;DHT22;53653;52.188;8.602;2022-07-04T06:32:52;20.26;64.57
66740;DHT22;53653;52.188;8.602;2022-07-04T06:35:20;20.19;65.22
66740;DHT22;53653;52.188;8.602;2022-07-04T06:38:04;20.37;65.60
66740;DHT22;53653;52.188;8.602;2022-07-04T06:40:30;20.52;63.66
66740;DHT22;53653;52.188;8.602;2022-07-04T06:42:57;20.57;63.06
66740;DHT22;53653;52.188;8.602;2022-07-04T06:45:23;20.83;62.56
66740;DHT22;53653;52.188;8.602;2022-07-04T06:47:48;20.93;62.77
66740;DHT22;53653;52.188;8.602;2022-07-04T06:50:15;21.03;61.12
66740;DHT22;53653;52.188;8.602;2022-07-04T06:52:40;21.21;60.67
66740;DHT22;53653;52.188;8.602;2022-07-04T06:55:09;20.37;61.21
66740;DHT22;53653;52.188;8.602;2022-07-04T06:57:34;20.74;60.40
66740;DHT22;53653;52.188;8.602;2022-07-04T07:00:00;20.98;60.29
66740;DHT22;53653;52.188;8.602;2022-07-04T07:02:25;20.81;60.43
66740;DHT22;53653;52.188;8.602;2022-07-04T07:04:51;20.67;60.70
66740;DHT22;53653;52.188;8.602;2022-07-04T07:07:19;20.95;59.57
66740;DHT22;53653;52.188;8.602;2022-07-04T07:09:44;21.18;57.92
66740;DHT22;53653;52.188;8.602;2022-07-04T07:12:09;21.86;57.00
66740;DHT22;53653;52.188;8.602;2022-07-04T07:14:35;22.14;54.26
66740;DHT22;53653;52.188;8.602;2022-07-04T07:17:00;21.38;55.46
66740;DHT22;53653;52.188;8.602;2022-07-04T07:19:27;20.66;58.66
66740;DHT22;53653;52.188;8.602;2022-07-04T07:21:53;20.22;58.27
66740;DHT22;53653;52.188;8.602;2022-07-04T07:24:18;20.67;57.15
66740;DHT22;53653;52.188;8.602;2022-07-04T07:26:44;21.01;55.96
66740;DHT22;53653;52.188;8.602;2022-07-04T07:29:09;21.49;55.07
66740;DHT22;53653;52.188;8.602;2022-07-04T07:31:35;21.71;53.86
66740;DHT22;53653;52.188;8.602;2022-07-04T07:34:00;22.22;53.77
66740;DHT22;53653;52.188;8.602;2022-07-04T07:36:26;22.21;52.67
66740;DHT22;53653;52.188;8.602;2022-07-04T07:38:51;21.78;53.52
66740;DHT22;53653;52.188;8.602;2022-07-04T07:41:18;21.94;49.26
66740;DHT22;53653;52.188;8.602;2022-07-04T07:43:43;22.18;49.09
66740;DHT22;53653;52.188;8.602;2022-07-04T07:46:09;21.97;49.69
66740;DHT22;53653;52.188;8.602;2022-07-04T07:48:35;21.85;49.76
66740;DHT22;53653;52.188;8.602;2022-07-04T07:51:00;22.09;47.50
66740;DHT22;53653;52.188;8.602;2022-07-04T07:53:26;21.99;46.26
66740;DHT22;53653;52.188;8.602;2022-07-04T07:55:52;21.83;48.29
66740;DHT22;53653;52.188;8.602;2022-07-04T07:58:20;21.86;47.03
66740;DHT22;53653;52.188;8.602;2022-07-04T08:00:46;22.03;46.97
66740;DHT22;53653;52.188;8.602;2022-07-04T08:03:11;22.25;45.70
66740;DHT22;53653;52.188;8.602;2022-07-04T08:05:56;22.73;47.33
66740;DHT22;53653;52.188;8.602;2022-07-04T08:08:21;22.65;45.71
66740;DHT22;53653;52.188;8.602;2022-07-04T08:10:48;22.81;45.00
66740;DHT22;53653;52.188;8.602;2022-07-04T08:13:14;22.95;45.29
66740;DHT22;53653;52.188;8.602;2022-07-04T08:15:39;22.91;45.30
66740;DHT22;53653;52.188;8.602;2022-07-04T08:18:05;22.62;45.98
66740;DHT22;53653;52.188;8.602;2022-07-04T08:20:30;22.79;46.35
66740;DHT22;53653;52.188;8.602;2022-07-04T08:22:56;23.34;45.33
66740;DHT22;53653;52.188;8.602;2022-07-04T08:25:24;23.92;43.69
66740;DHT22;53653;52.188;8.602;2022-07-04T08:27:50;24.12;43.37
66740;DHT22;53653;52.188;8.602;2022-07-04T08:30:15;23.78;43.23
66740;DHT22;53653;52.188;8.602;2022-07-04T08:32:40;23.33;43.94
66740;DHT22;53653;52.188;8.602;2022-07-04T08:35:06;23.44;44.46
66740;DHT22;53653;52.188;8.602;2022-07-04T08:37:32;23.12;44.97
66740;DHT22;53653;52.188;8.602;2022-07-04T08:39:58;23.50;44.65
66740;DHT22;53653;52.188;8.602;2022-07-04T08:42:23;23.97;44.09
66740;DHT22;53653;52.188;8.602;2022-07-04T08:44:50;23.94;44.17
66740;DHT22;53653;52.188;8.602;2022-07-04T08:47:18;24.22;43.81
66740;DHT22;53653;52.188;8.602;2022-07-04T08:50:05;24.22;43.00
66740;DHT22;53653;52.188;8.602;2022-07-04T08:52:40;24.26;42.69
66740;DHT22;53653;52.188;8.602;2022-07-04T08:55:08;24.08;43.47
66740;DHT22;53653;52.188;8.602;2022-07-04T08:57:52;24.21;42.80
66740;DHT22;53653;52.188;8.602;2022-07-04T09:00:37;23.89;43.76
66740;DHT22;53653;52.188;8.602;2022-07-04T09:03:03;23.77;43.98
66740;DHT22;53653;52.188;8.602;2022-07-04T09:05:30;24.19;43.06
66740;DHT22;53653;52.188;8.602;2022-07-04T09:07:57;24.53;42.26
66740;DHT22;53653;52.188;8.602;2022-07-04T09:10:23;24.66;42.09
66740;DHT22;53653;52.188;8.602;2022-07-04T09:12:49;24.26;43.07
66740;DHT22;53653;52.188;8.602;2022-07-04T09:15:15;24.13;43.01
66740;DHT22;53653;52.188;8.602;2022-07-04T09:17:41;24.35;41.64
66740;DHT22;53653;52.188;8.602;2022-07-04T09:20:21;24.32;42.36
66740;DHT22;53653;52.188;8.602;2022-07-04T09:22:48;24.42;42.06
66740;DHT22;53653;52.188;8.602;2022-07-04T09:25:15;24.40;42.72
66740;DHT22;53653;52.188;8.602;2022-07-04T09:27:46;24.84;42.55
66740;DHT22;53653;52.188;8.602;2022-07-04T09:30:14;25.25;41.11
66740;DHT22;53653;52.188;8.602;2022-07-04T09:35:16;25.25;41.05
66740;DHT22;53653;52.188;8.602;2022-07-04T09:37:50;25.66;40.33
66740;DHT22;53653;52.188;8.602;2022-07-04T09:42:55;25.41;41.61
66740;DHT22;53653;52.188;8.602;2022-07-04T09:45:21;25.92;39.87
66740;DHT22;53653;52.188;8.602;2022-07-04T09:47:50;25.72;39.30
66740;DHT22;53653;52.188;8.602;2022-07-04T09:50:19;25.79;39.44
66740;DHT22;53653;52.188;8.602;2022-07-04T09:57:53;24.30;43.99
66740;DHT22;53653;52.188;8.602;2022-07-04T10:00:30;25.11;41.08
66740;DHT22;53653;52.188;8.602;2022-07-04T10:02:57;25.39;40.14
66740;DHT22;53653;52.188;8.602;2022-07-04T10:05:40;25.56;40.27
66740;DHT22;53653;52.188;8.602;2022-07-04T10:08:05;24.55;42.52
66740;DHT22;53653;52.188;8.602;2022-07-04T10:10:36;24.40;43.36
66740;DHT22;53653;52.188;8.602;2022-07-04T10:13:06;25.01;41.87
66740;DHT22;53653;52.188;8.602;2022-07-04T10:15:37;25.04;41.17
66740;DHT22;53653;52.188;8.602;2022-07-04T10:18:04;24.71;41.24
66740;DHT22;53653;52.188;8.602;2022-07-04T10:20:30;24.95;40.00
66740;DHT22;53653;52.188;8.602;2022-07-04T10:22:56;24.67;40.90
66740;DHT22;53653;52.188;8.602;2022-07-04T10:25:22;24.94;41.58
66740;DHT22;53653;52.188;8.602;2022-07-04T10:27:48;25.00;41.67
66740;DHT22;53653;52.188;8.602;2022-07-04T10:30:21;25.56;40.86
66740;DHT22;53653;52.188;8.602;2022-07-04T10:32:48;25.90;39.68
66740;DHT22;53653;52.188;8.602;2022-07-04T10:35:17;26.37;38.58
66740;DHT22;53653;52.188;8.602;2022-07-04T10:38:02;25.28;40.60
66740;DHT22;53653;52.188;8.602;2022-07-04T10:40:48;24.46;43.07
66740;DHT22;53653;52.188;8.602;2022-07-04T10:45:50;25.66;38.84
66740;DHT22;53653;52.188;8.602;2022-07-04T10:48:21;25.37;39.45
66740;DHT22;53653;52.188;8.602;2022-07-04T10:51:04;25.62;39.36
66740;DHT22;53653;52.188;8.602;2022-07-04T10:53:30;25.94;39.08
66740;DHT22;53653;52.188;8.602;2022-07-04T10:58:42;26.37;39.55
66740;DHT22;53653;52.188;8.602;2022-07-04T11:03:47;26.48;39.08
66740;DHT22;53653;52.188;8.602;2022-07-04T11:09:20;25.77;39.08
66740;DHT22;53653;52.188;8.602;2022-07-04T11:12:04;25.90;38.51
66740;DHT22;53653;52.188;8.602;2022-07-04T11:17:00;24.97;40.57
66740;DHT22;53653;52.188;8.602;2022-07-04T11:19:26;24.91;40.96
66740;DHT22;53653;52.188;8.602;2022-07-04T11:21:57;24.81;40.51
66740;DHT22;53653;52.188;8.602;2022-07-04T11:24:24;24.26;41.25
66740;DHT22;53653;52.188;8.602;2022-07-04T11:26:50;24.19;42.60
66740;DHT22;53653;52.188;8.602;2022-07-04T11:29:15;24.35;42.53
66740;DHT22;53653;52.188;8.602;2022-07-04T11:31:43;25.14;41.71
66740;DHT22;53653;52.188;8.602;2022-07-04T11:34:09;25.77;40.04
66740;DHT22;53653;52.188;8.602;2022-07-04T11:36:37;25.73;39.46
66740;DHT22;53653;52.188;8.602;2022-07-04T11:39:05;25.19;39.92
66740;DHT22;53653;52.188;8.602;2022-07-04T11:41:37;24.79;41.04
66740;DHT22;53653;52.188;8.602;2022-07-04T11:44:24;24.52;41.78
66740;DHT22;53653;52.188;8.602;2022-07-04T11:49:46;24.49;41.83
66740;DHT22;53653;52.188;8.602;2022-07-04T11:52:12;24.49;41.49
66740;DHT22;53653;52.188;8.602;2022-07-04T11:54:40;24.60;41.60
66740;DHT22;53653;52.188;8.602;2022-07-04T11:57:13;24.59;39.92
66740;DHT22;53653;52.188;8.602;2022-07-04T11:59:38;24.44;41.18
66740;DHT22;53653;52.188;8.602;2022-07-04T12:02:15;24.36;41.63
66740;DHT22;53653;52.188;8.602;2022-07-04T12:04:41;25.15;40.84
66740;DHT22;53653;52.188;8.602;2022-07-04T12:07:19;25.56;39.91
66740;DHT22;53653;52.188;8.602;2022-07-04T12:09:47;25.65;39.49
66740;DHT22;53653;52.188;8.602;2022-07-04T12:12:14;25.58;39.51
66740;DHT22;53653;52.188;8.602;2022-07-04T12:15:05;25.70;38.54
66740;DHT22;53653;52.188;8.602;2022-07-04T12:17:34;25.85;38.47
66740;DHT22;53653;52.188;8.602;2022-07-04T12:22:41;25.90;38.13
66740;DHT22;53653;52.188;8.602;2022-07-04T12:25:08;26.18;37.54
66740;DHT22;53653;52.188;8.602;2022-07-04T12:27:57;26.03;36.94
66740;DHT22;53653;52.188;8.602;2022-07-04T12:30:24;26.21;37.52
66740;DHT22;53653;52.188;8.602;2022-07-04T12:32:58;26.06;38.15
66740;DHT22;53653;52.188;8.602;2022-07-04T12:38:10;25.21;38.76
66740;DHT22;53653;52.188;8.602;2022-07-04T12:40:37;25.01;38.14
66740;DHT22;53653;52.188;8.602;2022-07-04T12:43:13;25.03;38.02
66740;DHT22;53653;52.188;8.602;2022-07-04T12:45:44;25.56;38.14
66740;DHT22;53653;52.188;8.602;2022-07-04T12:48:36;25.39;37.95
66740;DHT22;53653;52.188;8.602;2022-07-04T12:51:19;25.45;38.10
66740;DHT22;53653;52.188;8.602;2022-07-04T12:53:47;25.82;37.99
66740;DHT22;53653;52.188;8.602;2022-07-04T12:59:00;26.37;36.82
66740;DHT22;53653;52.188;8.602;2022-07-04T13:01:26;26.49;36.45
66740;DHT22;53653;52.188;8.602;2022-07-04T13:03:52;26.56;35.81
66740;DHT22;53653;52.188;8.602;2022-07-04T13:06:17;26.64;35.63
66740;DHT22;53653;52.188;8.602;2022-07-04T13:08:44;26.41;35.59
66740;DHT22;53653;52.188;8.602;2022-07-04T13:11:09;26.68;35.74
66740;DHT22;53653;52.188;8.602;2022-07-04T13:13:53;26.85;35.90
66740;DHT22;53653;52.188;8.602;2022-07-04T13:16:19;26.85;34.54
66740;DHT22;53653;52.188;8.602;2022-07-04T13:18:44;26.95;34.50
66740;DHT22;53653;52.188;8.602;2022-07-04T13:21:10;26.55;35.44
66740;DHT22;53653;52.188;8.602;2022-07-04T13:23:35;26.23;35.91
66740;DHT22;53653;52.188;8.602;2022-07-04T13:26:01;26.23;36.20
66740;DHT22;53653;52.188;8.602;2022-07-04T13:28:26;26.68;34.81
66740;DHT22;53653;52.188;8.602;2022-07-04T13:30:52;26.61;35.59
66740;DHT22;53653;52.188;8.602;2022-07-04T13:33:17;26.47;35.96
66740;DHT22;53653;52.188;8.602;2022-07-04T13:35:42;26.64;36.32
66740;DHT22;53653;52.188;8.602;2022-07-04T13:38:08;26.34;35.95
66740;DHT22;53653;52.188;8.602;2022-07-04T13:40:33;26.44;36.03
66740;DHT22;53653;52.188;8.602;2022-07-04T13:43:00;26.59;35.38
66740;DHT22;53653;52.188;8.602;2022-07-04T13:45:26;26.34;36.19
66740;DHT22;53653;52.188;8.602;2022-07-04T13:47:52;26.28;36.14
66740;DHT22;53653;52.188;8.602;2022-07-04T13:50:18;26.18;36.19
66740;DHT22;53653;52.188;8.602;2022-07-04T13:52:44;26.16;36.54
66740;DHT22;53653;52.188;8.602;2022-07-04T13:55:10;25.87;36.48
66740;DHT22;53653;52.188;8.602;2022-07-04T13:57:36;25.75;36.46
66740;DHT22;53653;52.188;8.602;2022-07-04T14:00:06;25.58;36.47
66740;DHT22;53653;52.188;8.602;2022-07-04T14:02:32;25.97;36.65
66740;DHT22;53653;52.188;8.602;2022-07-04T14:04:58;26.18;36.20
66740;DHT22;53653;52.188;8.602;2022-07-04T14:07:23;26.27;35.72
66740;DHT22;53653;52.188;8.602;2022-07-04T14:09:49;26.24;35.61
66740;DHT22;53653;52.188;8.602;2022-07-04T14:12:15;26.00;36.86
66740;DHT22;53653;52.188;8.602;2022-07-04T14:14:41;25.80;36.63
66740;DHT22;53653;52.188;8.602;2022-07-04T14:17:07;25.68;37.01
66740;DHT22;53653;52.188;8.602;2022-07-04T14:19:32;25.69;37.01
66740;DHT22;53653;52.188;8.602;2022-07-04T14:21:58;25.80;37.23
66740;DHT22;53653;52.188;8.602;2022-07-04T14:24:23;26.07;36.37
66740;DHT22;53653;52.188;8.602;2022-07-04T14:26:53;26.12;37.26
66740;DHT22;53653;52.188;8.602;2022-07-04T14:29:19;25.87;36.60
66740;DHT22;53653;52.188;8.602;2022-07-04T14:31:45;25.90;37.37
66740;DHT22;53653;52.188;8.602;2022-07-04T14:34:11;26.00;37.18
66740;DHT22;53653;52.188;8.602;2022-07-04T14:36:40;25.98;36.99
66740;DHT22;53653;52.188;8.602;2022-07-04T14:39:07;25.72;36.34
66740;DHT22;53653;52.188;8.602;2022-07-04T14:41:32;25.59;37.01
66740;DHT22;53653;52.188;8.602;2022-07-04T14:43:59;25.32;37.66
66740;DHT22;53653;52.188;8.602;2022-07-04T14:46:26;25.21;37.09
66740;DHT22;53653;52.188;8.602;2022-07-04T14:48:51;25.18;37.62
66740;DHT22;53653;52.188;8.602;2022-07-04T14:51:17;25.27;37.06
66740;DHT22;53653;52.188;8.602;2022-07-04T14:53:42;25.24;37.64
66740;DHT22;53653;52.188;8.602;2022-07-04T14:56:08;25.43;37.75
66740;DHT22;53653;52.188;8.602;2022-07-04T14:58:34;25.53;37.94
66740;DHT22;53653;52.188;8.602;2022-07-04T15:00:59;25.25;38.45
66740;DHT22;53653;52.188;8.602;2022-07-04T15:03:25;25.25;38.87
66740;DHT22;53653;52.188;8.602;2022-07-04T15:05:50;25.52;38.64
66740;DHT22;53653;52.188;8.602;2022-07-04T15:08:16;25.75;38.80
66740;DHT22;53653;52.188;8.602;2022-07-04T15:10:42;25.58;38.64
66740;DHT22;53653;52.188;8.602;2022-07-04T15:13:07;25.42;38.08
66740;DHT22;53653;52.188;8.602;2022-07-04T15:15:33;25.34;38.67
66740;DHT22;53653;52.188;8.602;2022-07-04T15:17:59;25.25;39.34
66740;DHT22;53653;52.188;8.602;2022-07-04T15:20:24;25.11;39.21
66740;DHT22;53653;52.188;8.602;2022-07-04T15:23:08;25.14;39.50
66740;DHT22;53653;52.188;8.602;2022-07-04T15:25:52;25.06;40.40
66740;DHT22;53653;52.188;8.602;2022-07-04T15:28:17;25.11;39.90
66740;DHT22;53653;52.188;8.602;2022-07-04T15:30:43;25.45;39.73
66740;DHT22;53653;52.188;8.602;2022-07-04T15:33:08;25.69;39.52
66740;DHT22;53653;52.188;8.602;2022-07-04T15:35:42;25.58;39.28
66740;DHT22;53653;52.188;8.602;2022-07-04T15:38:09;25.38;40.10
66740;DHT22;53653;52.188;8.602;2022-07-04T15:40:34;25.39;39.77
66740;DHT22;53653;52.188;8.602;2022-07-04T15:43:00;25.34;39.70
66740;DHT22;53653;52.188;8.602;2022-07-04T15:45:25;25.28;39.74
66740;DHT22;53653;52.188;8.602;2022-07-04T15:47:51;25.46;40.22
66740;DHT22;53653;52.188;8.602;2022-07-04T15:50:16;25.59;40.00
66740;DHT22;53653;52.188;8.602;2022-07-04T15:52:42;25.43;39.35
66740;DHT22;53653;52.188;8.602;2022-07-04T15:55:08;25.43;40.10
66740;DHT22;53653;52.188;8.602;2022-07-04T15:57:33;25.69;39.36
66740;DHT22;53653;52.188;8.602;2022-07-04T15:59:59;26.31;38.69
66740;DHT22;53653;52.188;8.602;2022-07-04T16:02:24;26.55;38.21
66740;DHT22;53653;52.188;8.602;2022-07-04T16:04:50;26.27;38.47